createdAt,value
2018-05-25T00:00:01.519Z,16.30
2018-05-25T00:02:31.012Z,16.63
2018-05-25T00:05:00.330Z,17.10
2018-05-25T00:07:29.578Z,14.93
2018-05-25T00:09:58.896Z,15.83
2018-05-25T00:12:28.185Z,19.53
2018-05-25T00:14:57.667Z,14.83
2018-05-25T00:17:26.937Z,11.87
2018-05-25T00:19:56.977Z,18.23
2018-05-25T00:22:26.285Z,15.03
2018-05-25T00:24:55.745Z,18.10
2018-05-25T00:27:26.544Z,20.13
2018-05-25T00:29:55.821Z,19.90
2018-05-25T00:32:25.160Z,18.30
2018-05-25T00:34:54.439Z,20.60
2018-05-25T00:37:23.694Z,18.40
2018-05-25T00:39:53.098Z,16.30
2018-05-25T00:42:23.239Z,15.73
2018-05-25T00:44:52.546Z,16.50
2018-05-25T00:47:21.832Z,18.43
2018-05-25T00:49:51.874Z,19.30
2018-05-25T00:52:21.286Z,17.13
2018-05-25T00:55:08.171Z,21.70
2018-05-25T00:57:38.362Z,17.20
2018-05-25T01:00:08.428Z,16.70
2018-05-25T01:02:38.530Z,21.03
2018-05-25T01:05:08.571Z,20.70
2018-05-25T01:07:37.883Z,18.00
2018-05-25T01:10:07.165Z,22.40
2018-05-25T01:12:36.505Z,24.87
2018-05-25T01:15:06.692Z,24.17
2018-05-25T01:17:36.144Z,16.90
2018-05-25T01:20:05.433Z,22.67
2018-05-25T01:22:34.768Z,21.10
2018-05-25T01:25:05.066Z,18.93
2018-05-25T01:27:34.353Z,28.10
2018-05-25T01:30:03.627Z,23.83
2018-05-25T01:32:32.922Z,25.10
2018-05-25T01:35:02.189Z,24.23
2018-05-25T01:37:32.246Z,21.33
2018-05-25T01:40:01.525Z,21.07
2018-05-25T01:42:32.294Z,30.80
2018-05-25T01:45:01.791Z,26.17
2018-05-25T01:47:31.277Z,25.03
2018-05-25T01:50:00.558Z,24.60
2018-05-25T01:52:30.659Z,24.33
2018-05-25T01:55:00.176Z,24.13
2018-05-25T01:57:30.313Z,28.00
2018-05-25T01:59:59.629Z,22.83
2018-05-25T02:02:28.922Z,25.40
2018-05-25T02:04:58.207Z,25.03
2018-05-25T02:07:28.256Z,26.20
2018-05-25T02:09:57.548Z,28.40
2018-05-25T02:12:26.860Z,24.40
2018-05-25T02:14:56.178Z,24.37
2018-05-25T02:17:25.470Z,27.27
2018-05-25T02:19:54.753Z,27.03
2018-05-25T02:22:24.301Z,24.40
2018-05-25T02:24:53.586Z,27.37
2018-05-25T02:27:22.925Z,30.70
2018-05-25T02:29:52.415Z,21.23
2018-05-25T02:32:21.832Z,35.37
2018-05-25T02:34:51.885Z,28.57
2018-05-25T02:37:21.125Z,23.47
2018-05-25T02:39:51.193Z,27.23
2018-05-25T02:42:20.494Z,26.10
2018-05-25T02:44:50.706Z,29.97
2018-05-25T02:47:20.806Z,26.30
2018-05-25T02:49:50.853Z,29.17
2018-05-25T02:52:20.259Z,29.83
2018-05-25T02:54:49.547Z,28.40
2018-05-25T02:57:18.909Z,36.70
2018-05-25T02:59:48.222Z,27.67
2018-05-25T03:02:17.666Z,36.03
2018-05-25T03:04:47.073Z,28.67
2018-05-25T03:07:16.549Z,28.70
2018-05-25T03:09:46.594Z,25.13
2018-05-25T03:12:15.992Z,28.93
2018-05-25T03:14:45.265Z,28.43
2018-05-25T03:17:15.370Z,28.93
2018-05-25T03:19:44.686Z,29.50
2018-05-25T03:22:14.731Z,25.23
2018-05-25T03:24:44.058Z,27.20
2018-05-25T03:27:13.354Z,27.90
2018-05-25T03:29:42.724Z,26.60
2018-05-25T03:32:12.065Z,29.43
2018-05-25T03:34:41.384Z,28.00
2018-05-25T03:37:10.687Z,26.87
2018-05-25T03:39:39.976Z,28.73
2018-05-25T03:42:09.421Z,27.10
2018-05-25T03:44:38.903Z,27.57
2018-05-25T03:47:08.116Z,32.10
2018-05-25T03:49:38.170Z,30.27
2018-05-25T03:52:07.453Z,30.60
2018-05-25T03:54:36.769Z,28.07
2018-05-25T03:57:06.049Z,28.30
2018-05-25T03:59:53.655Z,25.70
2018-05-25T04:02:23.007Z,23.50
2018-05-25T04:04:52.281Z,32.30
2018-05-25T04:07:22.414Z,25.03
2018-05-25T04:09:51.714Z,33.60
2018-05-25T04:12:21.063Z,29.17
2018-05-25T04:14:50.339Z,24.87
2018-05-25T04:17:19.632Z,28.70
2018-05-25T04:19:48.937Z,23.50
2018-05-25T04:22:18.274Z,24.40
2018-05-25T04:24:47.573Z,24.33
2018-05-25T04:27:16.859Z,29.87
2018-05-25T04:29:46.289Z,26.53
2018-05-25T04:32:16.351Z,26.70
2018-05-25T04:34:45.832Z,25.70
2018-05-25T04:37:16.029Z,26.63
2018-05-25T04:39:46.090Z,29.67
2018-05-25T04:42:15.381Z,24.07
2018-05-25T04:44:44.663Z,27.43
2018-05-25T04:47:14.721Z,23.60
2018-05-25T04:49:44.013Z,22.10
2018-05-25T04:52:13.396Z,20.67
2018-05-25T04:54:43.784Z,24.03
2018-05-25T04:57:13.072Z,19.13
2018-05-25T04:59:42.347Z,21.37
2018-05-25T05:02:11.653Z,30.13
2018-05-25T05:04:41.053Z,28.73
2018-05-25T05:07:10.580Z,18.47
2018-05-25T05:09:39.843Z,18.20
2018-05-25T05:12:09.142Z,19.27
2018-05-25T05:14:38.507Z,18.00
2018-05-25T05:17:08.420Z,19.30
2018-05-25T05:19:39.212Z,22.33
2018-05-25T05:22:08.571Z,19.90
2018-05-25T05:24:38.035Z,22.83
2018-05-25T05:27:07.377Z,22.07
2018-05-25T05:29:37.422Z,22.27
2018-05-25T05:32:06.710Z,21.90
2018-05-25T05:34:35.990Z,27.67
2018-05-25T05:37:06.043Z,17.37
2018-05-25T05:39:35.354Z,23.33
2018-05-25T05:42:04.636Z,20.67
2018-05-25T05:44:33.931Z,38.47
2018-05-25T05:47:03.698Z,38.23
2018-05-25T05:49:32.995Z,36.17
2018-05-25T05:52:02.352Z,35.97
2018-05-25T05:54:31.751Z,36.03
2018-05-25T05:57:01.097Z,32.77
2018-05-25T05:59:30.388Z,31.20
2018-05-25T06:01:59.673Z,41.37
2018-05-25T06:04:28.962Z,48.43
2018-05-25T06:06:58.272Z,39.63
2018-05-25T06:09:28.442Z,44.13
2018-05-25T06:11:57.795Z,44.00
2018-05-25T06:14:27.116Z,40.57
2018-05-25T06:16:56.469Z,41.30
2018-05-25T06:19:25.818Z,37.83
2018-05-25T06:21:55.123Z,38.00
2018-05-25T06:24:24.436Z,38.10
2018-05-25T06:26:55.222Z,39.93
2018-05-25T06:29:24.556Z,36.13
2018-05-25T06:31:53.851Z,40.20
2018-05-25T06:34:23.158Z,38.50
2018-05-25T06:36:52.430Z,45.10
2018-05-25T06:39:21.709Z,40.87
2018-05-25T06:41:50.996Z,40.53
2018-05-25T06:44:21.101Z,38.77
2018-05-25T06:46:50.343Z,34.20
2018-05-25T06:49:19.613Z,39.77
2018-05-25T06:51:49.673Z,35.20
2018-05-25T06:54:18.950Z,36.53
2018-05-25T06:56:48.288Z,38.50
2018-05-25T06:59:17.588Z,38.97
2018-05-25T07:01:47.060Z,35.77
2018-05-25T07:04:16.403Z,32.10
2018-05-25T07:06:45.697Z,37.40
2018-05-25T07:09:15.024Z,31.07
2018-05-25T07:11:44.292Z,29.77
2018-05-25T07:14:13.725Z,39.53
2018-05-25T07:16:43.022Z,31.13
2018-05-25T07:19:12.303Z,35.97
2018-05-25T07:21:41.727Z,31.10
2018-05-25T07:24:12.578Z,37.37
2018-05-25T07:26:42.925Z,31.30
2018-05-25T07:29:12.267Z,38.00
2018-05-25T07:31:41.535Z,33.37
2018-05-25T07:34:10.820Z,36.07
2018-05-25T07:36:41.439Z,32.47
2018-05-25T07:39:12.119Z,32.00
2018-05-25T07:41:41.443Z,38.73
2018-05-25T07:44:10.719Z,35.93
2018-05-25T07:46:40.098Z,48.33
2018-05-25T07:49:09.423Z,40.93
2018-05-25T07:51:38.712Z,35.17
2018-05-25T07:54:08.002Z,33.93
2018-05-25T07:56:37.368Z,35.83
2018-05-25T07:59:06.680Z,35.43
2018-05-25T08:01:36.632Z,36.70
2018-05-25T08:04:05.959Z,44.47
2018-05-25T08:06:35.232Z,31.17
2018-05-25T08:09:05.461Z,35.17
2018-05-25T08:11:34.724Z,35.83
2018-05-25T08:14:04.777Z,38.67
2018-05-25T08:16:37.602Z,42.00
2018-05-25T08:19:06.880Z,36.67
2018-05-25T08:21:36.124Z,39.47
2018-05-25T08:24:05.758Z,34.37
2018-05-25T08:26:35.093Z,37.60
2018-05-25T08:29:08.392Z,40.20
2018-05-25T08:31:37.645Z,41.73
2018-05-25T08:34:07.157Z,42.73
2018-05-25T08:36:36.438Z,49.83
2018-05-25T08:39:07.269Z,45.27
2018-05-25T08:41:36.559Z,40.27
2018-05-25T08:44:06.644Z,36.63
2018-05-25T08:46:36.061Z,51.40
2018-05-25T08:49:06.323Z,52.70
2018-05-25T08:51:36.315Z,45.07
2018-05-25T08:54:05.622Z,37.80
2018-05-25T08:56:35.653Z,51.47
2018-05-25T08:59:04.937Z,38.20
2018-05-25T09:01:34.232Z,43.03
2018-05-25T09:04:03.537Z,39.00
2018-05-25T09:06:33.629Z,37.13
2018-05-25T09:09:03.531Z,33.77
2018-05-25T09:11:32.929Z,35.63
2018-05-25T09:14:02.205Z,36.87
2018-05-25T09:16:31.496Z,28.93
2018-05-25T09:19:01.548Z,34.13
2018-05-25T09:21:30.820Z,37.70
2018-05-25T09:24:00.866Z,26.17
2018-05-25T09:26:30.137Z,28.40
2018-05-25T09:29:00.161Z,36.47
2018-05-25T09:31:29.440Z,25.83
2018-05-25T09:33:59.645Z,25.80
2018-05-25T09:36:28.930Z,28.17
2018-05-25T09:38:58.282Z,23.73
2018-05-25T09:41:27.728Z,25.40
2018-05-25T09:43:57.034Z,30.57
2018-05-25T09:46:26.352Z,26.47
2018-05-25T09:48:55.686Z,24.23
2018-05-25T09:51:25.070Z,28.50
2018-05-25T09:53:55.130Z,24.53
2018-05-25T09:56:24.461Z,26.63
2018-05-25T09:58:53.753Z,19.83
2018-05-25T10:01:23.299Z,26.40
2018-05-25T10:03:57.246Z,19.60
2018-05-25T10:06:26.549Z,28.73
2018-05-25T10:08:55.820Z,18.67
2018-05-25T10:11:25.103Z,23.90
2018-05-25T10:13:58.792Z,23.03
2018-05-25T10:16:28.068Z,22.50
2018-05-25T10:18:57.373Z,20.60
2018-05-25T10:21:26.689Z,19.87
2018-05-25T10:23:55.967Z,20.57
2018-05-25T10:26:25.250Z,22.63
2018-05-25T10:28:54.539Z,17.93
2018-05-25T10:31:23.829Z,20.83
2018-05-25T10:33:53.111Z,20.10
2018-05-25T10:36:23.166Z,23.60
2018-05-25T10:38:52.450Z,17.57
2018-05-25T10:41:21.742Z,20.73
2018-05-25T10:43:51.903Z,17.93
2018-05-25T10:46:21.354Z,15.10
2018-05-25T10:48:51.487Z,16.53
2018-05-25T10:51:21.518Z,21.20
2018-05-25T10:53:50.845Z,16.30
2018-05-25T10:56:20.178Z,27.23
2018-05-25T10:58:49.490Z,18.10
2018-05-25T11:01:18.820Z,19.00
2018-05-25T11:03:48.143Z,23.30
2018-05-25T11:06:18.191Z,21.97
2018-05-25T11:08:48.662Z,21.10
2018-05-25T11:11:17.993Z,24.47
2018-05-25T11:13:47.269Z,25.50
2018-05-25T11:16:16.599Z,19.03
2018-05-25T11:18:45.887Z,25.53
2018-05-25T11:21:15.183Z,25.13
2018-05-25T11:23:44.448Z,29.03
2018-05-25T11:26:14.491Z,26.57
2018-05-25T11:28:43.910Z,28.60
2018-05-25T11:31:13.207Z,27.60
2018-05-25T11:33:42.469Z,31.47
2018-05-25T11:36:12.516Z,28.33
2018-05-25T11:38:41.802Z,24.60
2018-05-25T11:41:11.102Z,25.40
2018-05-25T11:43:40.396Z,26.23
2018-05-25T11:46:09.706Z,32.10
2018-05-25T11:48:39.747Z,21.10
2018-05-25T11:51:09.039Z,22.20
2018-05-25T11:53:38.349Z,23.70
2018-05-25T11:56:07.643Z,24.40
2018-05-25T11:58:36.911Z,27.07
2018-05-25T12:01:08.574Z,23.47
2018-05-25T12:03:37.805Z,25.73
2018-05-25T12:06:07.164Z,30.67
2018-05-25T12:08:37.241Z,37.70
2018-05-25T12:11:06.576Z,16.73
2018-05-25T12:13:36.624Z,22.60
2018-05-25T12:16:05.937Z,19.97
2018-05-25T12:18:35.239Z,20.90
2018-05-25T12:21:04.554Z,30.17
2018-05-25T12:23:33.942Z,24.77
2018-05-25T12:26:03.236Z,20.10
2018-05-25T12:28:36.086Z,19.87
2018-05-25T12:31:05.531Z,20.40
2018-05-25T12:33:34.827Z,18.00
2018-05-25T12:36:04.153Z,16.90
2018-05-25T12:38:33.726Z,15.50
2018-05-25T12:41:03.040Z,16.10
2018-05-25T12:43:32.321Z,16.40
2018-05-25T12:46:01.629Z,10.50
2018-05-25T12:48:30.941Z,12.80
2018-05-25T12:51:00.224Z,16.63
2018-05-25T12:53:29.541Z,16.77
2018-05-25T12:55:58.807Z,13.30
2018-05-25T12:58:28.947Z,29.23
2018-05-25T13:01:02.089Z,12.90
2018-05-25T13:03:31.363Z,13.80
2018-05-25T13:06:00.691Z,16.20
2018-05-25T13:08:30.018Z,15.10
2018-05-25T13:11:00.063Z,13.10
2018-05-25T13:13:29.370Z,21.23
2018-05-25T13:15:58.650Z,12.73
2018-05-25T13:18:28.703Z,6.93
2018-05-25T13:20:57.996Z,7.03
2018-05-25T13:23:28.108Z,11.43
2018-05-25T13:25:57.388Z,12.33
2018-05-25T13:28:27.401Z,10.30
2018-05-25T13:30:56.926Z,5.43
2018-05-25T13:33:26.213Z,14.33
2018-05-25T13:35:56.285Z,9.53
2018-05-25T13:38:25.594Z,18.23
2018-05-25T13:40:54.990Z,6.30
2018-05-25T13:43:24.458Z,5.67
2018-05-25T13:45:53.805Z,8.30
2018-05-25T13:48:23.074Z,12.63
2018-05-25T13:50:52.446Z,19.03
2018-05-25T13:53:22.459Z,5.00
2018-05-25T13:55:51.752Z,17.63
2018-05-25T13:58:21.848Z,5.70
2018-05-25T14:00:51.897Z,5.30
2018-05-25T14:03:21.500Z,5.40
2018-05-25T14:05:51.080Z,10.00
2018-05-25T14:08:20.355Z,4.87
2018-05-25T14:10:49.686Z,5.53
2018-05-25T14:13:18.973Z,5.57
2018-05-25T14:15:48.245Z,7.77
2018-05-25T14:18:17.561Z,4.83
2018-05-25T14:20:46.815Z,5.73
2018-05-25T14:23:16.096Z,15.63
2018-05-25T14:25:45.441Z,8.73
2018-05-25T14:28:14.736Z,8.90
2018-05-25T14:30:44.165Z,19.13
2018-05-25T14:33:13.655Z,14.03
2018-05-25T14:35:43.895Z,6.80
2018-05-25T14:38:13.163Z,11.53
2018-05-25T14:40:42.515Z,15.30
2018-05-25T14:43:11.778Z,12.83
2018-05-25T14:45:41.051Z,9.30
2018-05-25T14:48:10.393Z,8.83
2018-05-25T14:50:40.165Z,5.90
2018-05-25T14:53:09.436Z,5.90
2018-05-25T14:55:39.484Z,5.83
2018-05-25T14:58:08.991Z,6.77
2018-05-25T15:00:38.301Z,8.83
2018-05-25T15:03:07.589Z,6.17
2018-05-25T15:05:37.076Z,6.27
2018-05-25T15:08:06.405Z,5.17
2018-05-25T15:10:35.613Z,4.97
2018-05-25T15:13:04.980Z,6.73
2018-05-25T15:15:34.298Z,9.53
2018-05-25T15:18:03.651Z,4.87
2018-05-25T15:20:32.957Z,4.97
2018-05-25T15:23:02.265Z,4.77
2018-05-25T15:25:32.346Z,4.67
2018-05-25T15:28:01.677Z,5.13
2018-05-25T15:30:30.977Z,8.00
2018-05-25T15:33:00.270Z,5.80
2018-05-25T15:35:29.541Z,4.77
2018-05-25T15:37:59.023Z,4.77
2018-05-25T15:40:28.319Z,4.83
2018-05-25T15:42:58.341Z,4.50
2018-05-25T15:45:27.635Z,6.80
2018-05-25T15:47:56.932Z,5.03
2018-05-25T15:50:26.403Z,4.80
2018-05-25T15:52:55.681Z,4.57
2018-05-25T15:55:28.867Z,5.37
2018-05-25T15:57:58.133Z,4.93
2018-05-25T16:00:27.428Z,3.40
2018-05-25T16:02:56.798Z,4.13
2018-05-25T16:05:26.063Z,3.37
2018-05-25T16:07:55.901Z,6.37
2018-05-25T16:10:25.161Z,3.40
2018-05-25T16:12:54.482Z,5.07
2018-05-25T16:15:24.598Z,4.63
2018-05-25T16:17:53.847Z,4.30
2018-05-25T16:20:23.158Z,3.50
2018-05-25T16:22:53.198Z,3.70
2018-05-25T16:25:22.492Z,4.10
2018-05-25T16:27:51.832Z,3.80
2018-05-25T16:30:21.123Z,3.17
2018-05-25T16:32:50.413Z,3.50
2018-05-25T16:35:20.052Z,3.70
2018-05-25T16:37:49.324Z,3.50
2018-05-25T16:40:18.595Z,5.43
2018-05-25T16:42:47.881Z,3.83
2018-05-25T16:45:17.929Z,4.93
2018-05-25T16:47:47.355Z,3.33
2018-05-25T16:50:17.633Z,5.00
2018-05-25T16:52:46.879Z,4.30
2018-05-25T16:55:16.171Z,6.70
2018-05-25T16:57:45.431Z,3.77
2018-05-25T17:00:14.719Z,6.50
2018-05-25T17:02:44.022Z,4.43
2018-05-25T17:05:13.267Z,6.80
2018-05-25T17:07:42.574Z,4.77
2018-05-25T17:10:11.953Z,5.67
2018-05-25T17:12:41.303Z,5.27
2018-05-25T17:15:10.550Z,10.30
2018-05-25T17:17:39.844Z,5.77
2018-05-25T17:20:09.329Z,6.03
2018-05-25T17:22:38.735Z,5.90
2018-05-25T17:25:08.777Z,7.40
2018-05-25T17:27:38.065Z,6.10
2018-05-25T17:30:07.344Z,5.17
2018-05-25T17:32:36.771Z,5.70
2018-05-25T17:35:06.190Z,10.50
2018-05-25T17:37:35.633Z,5.93
2018-05-25T17:40:04.927Z,5.60
2018-05-25T17:42:34.256Z,5.53
2018-05-25T17:45:04.310Z,6.70
2018-05-25T17:47:33.568Z,6.03
2018-05-25T17:50:03.014Z,5.60
2018-05-25T17:52:32.299Z,5.03
2018-05-25T17:55:01.573Z,7.60
2018-05-25T17:57:30.854Z,9.30
2018-05-25T18:00:00.119Z,6.27
2018-05-25T18:02:29.590Z,8.33
2018-05-25T18:04:59.680Z,6.07
2018-05-25T18:07:28.996Z,10.70
2018-05-25T18:09:59.064Z,9.17
2018-05-25T18:12:28.358Z,4.93
2018-05-25T18:14:57.663Z,5.47
2018-05-25T18:17:27.164Z,7.10
2018-05-25T18:19:56.389Z,7.70
2018-05-25T18:22:25.727Z,8.83
2018-05-25T18:24:55.843Z,11.20
2018-05-25T18:27:25.117Z,6.03
2018-05-25T18:29:54.464Z,6.80
2018-05-25T18:32:23.754Z,5.57
2018-05-25T18:34:53.795Z,13.13
2018-05-25T18:37:23.055Z,5.67
2018-05-25T18:39:52.329Z,12.10
2018-05-25T18:42:21.747Z,14.00
2018-05-25T18:44:51.068Z,39.30
2018-05-25T18:47:24.697Z,15.23
2018-05-25T18:49:53.994Z,11.33
2018-05-25T18:52:24.176Z,11.37
2018-05-25T18:54:53.498Z,5.67
2018-05-25T18:57:23.531Z,11.60
2018-05-25T18:59:52.963Z,11.53
2018-05-25T19:02:22.237Z,6.67
2018-05-25T19:04:51.565Z,7.60
2018-05-25T19:07:20.807Z,11.80
2018-05-25T19:09:51.185Z,7.80
2018-05-25T19:12:28.268Z,5.50
2018-05-25T19:14:57.726Z,11.40
2018-05-25T19:17:27.129Z,6.10
2018-05-25T19:19:56.572Z,7.43
2018-05-25T19:22:25.875Z,10.73
2018-05-25T19:24:55.141Z,7.90
2018-05-25T19:27:24.455Z,9.33
2018-05-25T19:29:54.521Z,11.03
2018-05-25T19:32:23.811Z,7.70
2018-05-25T19:34:53.081Z,7.70
2018-05-25T19:37:22.378Z,13.10
2018-05-25T19:39:51.795Z,10.47
2018-05-25T19:42:21.096Z,7.77
2018-05-25T19:44:50.450Z,6.73
2018-05-25T19:47:19.725Z,9.40
2018-05-25T19:49:48.988Z,8.73
2018-05-25T19:52:18.479Z,6.90
2018-05-25T19:54:48.510Z,5.83
2018-05-25T19:57:17.949Z,8.27
2018-05-25T19:59:47.265Z,7.00
2018-05-25T20:02:17.380Z,9.50
2018-05-25T20:04:46.808Z,14.27
2018-05-25T20:07:16.105Z,9.03
2018-05-25T20:09:46.152Z,9.10
2018-05-25T20:12:16.430Z,7.40
2018-05-25T20:14:47.310Z,7.47
2018-05-25T20:17:16.677Z,7.40
2018-05-25T20:19:45.955Z,11.40
2018-05-25T20:22:15.290Z,7.10
2018-05-25T20:24:44.549Z,9.80
2018-05-25T20:27:13.829Z,7.50
2018-05-25T20:29:43.095Z,5.73
2018-05-25T20:32:13.145Z,6.50
2018-05-25T20:34:42.716Z,9.77
2018-05-25T20:37:12.755Z,6.87
2018-05-25T20:39:42.120Z,7.63
2018-05-25T20:42:11.450Z,7.20
2018-05-25T20:44:40.727Z,5.70
2018-05-25T20:47:10.007Z,5.70
2018-05-25T20:49:40.022Z,5.80
2018-05-25T20:52:09.353Z,10.13
2018-05-25T20:54:39.447Z,9.53
2018-05-25T20:57:08.757Z,9.63
2018-05-25T20:59:38.070Z,10.53
2018-05-25T21:02:07.357Z,8.70
2018-05-25T21:04:41.340Z,7.80
2018-05-25T21:07:16.410Z,5.50
2018-05-25T21:09:45.718Z,7.17
2018-05-25T21:12:15.816Z,9.43
2018-05-25T21:14:45.987Z,11.63
2018-05-25T21:17:15.296Z,6.40
2018-05-25T21:19:44.576Z,11.40
2018-05-25T21:22:14.717Z,5.50
2018-05-25T21:24:44.032Z,53.87
2018-05-25T21:27:13.335Z,5.33
2018-05-25T21:29:42.583Z,4.07
2018-05-25T21:32:12.832Z,6.47
2018-05-25T21:34:42.205Z,5.90
2018-05-25T21:37:12.242Z,7.03
2018-05-25T21:39:42.323Z,6.17
2018-05-25T21:42:11.656Z,5.30
2018-05-25T21:44:41.679Z,10.60
2018-05-25T21:47:11.347Z,7.40
2018-05-25T21:49:42.179Z,5.60
2018-05-25T21:52:11.456Z,6.20
2018-05-25T21:54:40.913Z,15.03
2018-05-25T21:57:11.126Z,5.97
2018-05-25T21:59:40.399Z,8.73
2018-05-25T22:02:09.705Z,6.30
2018-05-25T22:04:39.058Z,5.47
2018-05-25T22:07:09.110Z,10.20
2018-05-25T22:09:38.388Z,9.97
2018-05-25T22:12:07.681Z,13.70
2018-05-25T22:14:36.969Z,6.20
2018-05-25T22:17:07.120Z,5.97
2018-05-25T22:19:36.418Z,6.67
2018-05-25T22:22:05.754Z,9.93
2018-05-25T22:24:35.000Z,7.27
2018-05-25T22:27:04.289Z,10.33
2018-05-25T22:29:34.322Z,5.70
2018-05-25T22:32:03.621Z,13.80
2018-05-25T22:34:32.928Z,10.03
2018-05-25T22:37:02.224Z,11.10
2018-05-25T22:39:31.517Z,6.53
2018-05-25T22:42:00.769Z,15.00
2018-05-25T22:44:47.587Z,6.80
2018-05-25T22:47:40.505Z,7.73
2018-05-25T22:50:33.442Z,8.63
2018-05-25T22:56:13.625Z,6.27
2018-05-25T22:58:42.959Z,6.67
2018-05-25T23:01:12.249Z,8.80
2018-05-25T23:03:41.534Z,6.87
2018-05-25T23:06:10.824Z,7.80
2018-05-25T23:08:40.097Z,9.90
2018-05-25T23:11:10.142Z,6.10
2018-05-25T23:13:39.730Z,8.07
2018-05-25T23:16:09.789Z,13.73
2018-05-25T23:18:39.084Z,7.00
2018-05-25T23:21:08.326Z,8.17
2018-05-25T23:23:38.392Z,5.80
2018-05-25T23:26:07.661Z,8.80
2018-05-25T23:28:37.716Z,9.50
2018-05-25T23:31:06.961Z,5.30
2018-05-25T23:33:37.006Z,6.60
2018-05-25T23:36:06.309Z,7.13
2018-05-25T23:38:36.340Z,7.00
2018-05-25T23:41:05.606Z,5.83
2018-05-25T23:43:35.680Z,10.30
2018-05-25T23:46:04.958Z,6.30
2018-05-25T23:48:34.251Z,7.53
2018-05-25T23:51:04.262Z,8.00
2018-05-25T23:53:33.561Z,5.80
2018-05-25T23:56:02.840Z,7.77
2018-05-25T23:58:32.915Z,21.47
